sensor_id;sensor_type;location;lat;lon;timestamp;temperature;humidity
7646;DHT22;3864;48.180;14.178;2023-08-21T00:00:45;18.70;99.90
7646;DHT22;3864;48.180;14.178;2023-08-21T00:03:12;18.70;99.90
7646;DHT22;3864;48.180;14.178;2023-08-21T00:05:39;18.70;99.90
7646;DHT22;3864;48.180;14.178;2023-08-21T00:08:06;18.70;99.90
7646;DHT22;3864;48.180;14.178;2023-08-21T00:10:33;18.60;99.90
7646;DHT22;3864;48.180;14.178;2023-08-21T00:13:04;18.60;99.90
7646;DHT22;3864;48.180;14.178;2023-08-21T00:15:32;18.50;99.90
7646;DHT22;3864;48.180;14.178;2023-08-21T00:17:59;18.40;99.90
7646;DHT22;3864;48.180;14.178;2023-08-21T00:20:27;18.40;99.90
7646;DHT22;3864;48.180;14.178;2023-08-21T00:22:54;18.30;99.90
7646;DHT22;3864;48.180;14.178;2023-08-21T00:25:21;18.30;99.90
7646;DHT22;3864;48.180;14.178;2023-08-21T00:27:48;18.30;99.90
7646;DHT22;3864;48.180;14.178;2023-08-21T00:30:15;18.40;99.90
7646;DHT22;3864;48.180;14.178;2023-08-21T00:32:44;18.40;99.90
7646;DHT22;3864;48.180;14.178;2023-08-21T00:35:11;18.50;99.90
7646;DHT22;3864;48.180;14.178;2023-08-21T00:37:38;18.50;99.90
7646;DHT22;3864;48.180;14.178;2023-08-21T00:40:06;18.50;99.90
7646;DHT22;3864;48.180;14.178;2023-08-21T00:42:33;18.60;99.90
7646;DHT22;3864;48.180;14.178;2023-08-21T00:45:00;18.60;99.90
7646;DHT22;3864;48.180;14.178;2023-08-21T00:47:27;18.60;99.90
7646;DHT22;3864;48.180;14.178;2023-08-21T00:49:56;18.50;99.90
7646;DHT22;3864;48.180;14.178;2023-08-21T00:52:24;18.40;99.90
7646;DHT22;3864;48.180;14.178;2023-08-21T00:54:51;18.30;99.90
7646;DHT22;3864;48.180;14.178;2023-08-21T00:57:18;18.20;99.90
7646;DHT22;3864;48.180;14.178;2023-08-21T00:59:45;18.20;99.90
7646;DHT22;3864;48.180;14.178;2023-08-21T01:02:13;18.30;99.90
7646;DHT22;3864;48.180;14.178;2023-08-21T01:04:40;18.40;99.90
7646;DHT22;3864;48.180;14.178;2023-08-21T01:07:09;18.40;99.90
7646;DHT22;3864;48.180;14.178;2023-08-21T01:09:41;18.30;99.90
7646;DHT22;3864;48.180;14.178;2023-08-21T01:12:14;18.30;99.90
7646;DHT22;3864;48.180;14.178;2023-08-21T01:14:53;18.10;99.90
7646;DHT22;3864;48.180;14.178;2023-08-21T01:17:23;18.10;99.90
7646;DHT22;3864;48.180;14.178;2023-08-21T01:19:52;18.00;99.90
7646;DHT22;3864;48.180;14.178;2023-08-21T01:22:25;17.90;99.90
7646;DHT22;3864;48.180;14.178;2023-08-21T01:24:54;17.80;99.90
7646;DHT22;3864;48.180;14.178;2023-08-21T01:27:21;17.70;99.90
7646;DHT22;3864;48.180;14.178;2023-08-21T01:29:48;17.70;99.90
7646;DHT22;3864;48.180;14.178;2023-08-21T01:32:21;17.60;99.90
7646;DHT22;3864;48.180;14.178;2023-08-21T01:34:49;17.60;99.90
7646;DHT22;3864;48.180;14.178;2023-08-21T01:37:17;17.50;99.90
7646;DHT22;3864;48.180;14.178;2023-08-21T01:39:44;17.50;99.90
7646;DHT22;3864;48.180;14.178;2023-08-21T01:42:13;17.40;99.90
7646;DHT22;3864;48.180;14.178;2023-08-21T01:44:40;17.40;99.90
7646;DHT22;3864;48.180;14.178;2023-08-21T01:47:07;17.30;99.90
7646;DHT22;3864;48.180;14.178;2023-08-21T01:49:34;17.20;99.90
7646;DHT22;3864;48.180;14.178;2023-08-21T01:52:01;17.20;99.90
7646;DHT22;3864;48.180;14.178;2023-08-21T01:54:28;17.10;99.90
7646;DHT22;3864;48.180;14.178;2023-08-21T01:56:55;17.10;99.90
7646;DHT22;3864;48.180;14.178;2023-08-21T01:59:24;17.00;99.90
7646;DHT22;3864;48.180;14.178;2023-08-21T02:01:51;17.00;99.90
7646;DHT22;3864;48.180;14.178;2023-08-21T02:04:19;17.00;99.90
7646;DHT22;3864;48.180;14.178;2023-08-21T02:06:46;16.90;99.90
7646;DHT22;3864;48.180;14.178;2023-08-21T02:09:13;16.90;99.90
7646;DHT22;3864;48.180;14.178;2023-08-21T02:11:40;16.90;99.90
7646;DHT22;3864;48.180;14.178;2023-08-21T02:14:07;17.00;99.90
7646;DHT22;3864;48.180;14.178;2023-08-21T02:16:36;17.00;99.90
7646;DHT22;3864;48.180;14.178;2023-08-21T02:19:03;17.00;99.90
7646;DHT22;3864;48.180;14.178;2023-08-21T02:21:30;17.00;99.90
7646;DHT22;3864;48.180;14.178;2023-08-21T02:23:57;17.00;99.90
7646;DHT22;3864;48.180;14.178;2023-08-21T02:26:24;17.00;99.90
7646;DHT22;3864;48.180;14.178;2023-08-21T02:28:51;17.00;99.90
7646;DHT22;3864;48.180;14.178;2023-08-21T02:31:18;17.00;99.90
7646;DHT22;3864;48.180;14.178;2023-08-21T02:33:46;17.00;99.90
7646;DHT22;3864;48.180;14.178;2023-08-21T02:36:15;17.00;99.90
7646;DHT22;3864;48.180;14.178;2023-08-21T02:38:42;17.00;99.90
7646;DHT22;3864;48.180;14.178;2023-08-21T02:41:09;17.00;99.90
7646;DHT22;3864;48.180;14.178;2023-08-21T02:43:36;16.90;99.90
7646;DHT22;3864;48.180;14.178;2023-08-21T02:46:03;16.90;99.90
7646;DHT22;3864;48.180;14.178;2023-08-21T02:48:30;16.90;99.90
7646;DHT22;3864;48.180;14.178;2023-08-21T02:50:58;16.80;99.90
7646;DHT22;3864;48.180;14.178;2023-08-21T02:53:25;16.80;99.90
7646;DHT22;3864;48.180;14.178;2023-08-21T02:55:52;16.80;99.90
7646;DHT22;3864;48.180;14.178;2023-08-21T02:58:19;16.70;99.90
7646;DHT22;3864;48.180;14.178;2023-08-21T03:00:46;16.70;99.90
7646;DHT22;3864;48.180;14.178;2023-08-21T03:03:13;16.70;99.90
7646;DHT22;3864;48.180;14.178;2023-08-21T03:05:40;16.60;99.90
7646;DHT22;3864;48.180;14.178;2023-08-21T03:08:09;16.50;99.90
7646;DHT22;3864;48.180;14.178;2023-08-21T03:10:36;16.50;99.90
7646;DHT22;3864;48.180;14.178;2023-08-21T03:13:03;16.40;99.90
7646;DHT22;3864;48.180;14.178;2023-08-21T03:15:30;16.40;99.90
7646;DHT22;3864;48.180;14.178;2023-08-21T03:17:57;16.50;99.90
7646;DHT22;3864;48.180;14.178;2023-08-21T03:20:25;16.50;99.90
7646;DHT22;3864;48.180;14.178;2023-08-21T03:22:52;16.50;99.90
7646;DHT22;3864;48.180;14.178;2023-08-21T03:25:21;16.50;99.90
7646;DHT22;3864;48.180;14.178;2023-08-21T03:27:47;16.60;99.90
7646;DHT22;3864;48.180;14.178;2023-08-21T03:30:15;16.50;99.90
7646;DHT22;3864;48.180;14.178;2023-08-21T03:32:42;16.50;99.90
7646;DHT22;3864;48.180;14.178;2023-08-21T03:35:09;16.40;99.90
7646;DHT22;3864;48.180;14.178;2023-08-21T03:37:36;16.40;99.90
7646;DHT22;3864;48.180;14.178;2023-08-21T03:40:04;16.40;99.90
7646;DHT22;3864;48.180;14.178;2023-08-21T03:42:33;16.40;99.90
7646;DHT22;3864;48.180;14.178;2023-08-21T03:45:01;16.40;99.90
7646;DHT22;3864;48.180;14.178;2023-08-21T03:47:30;16.50;99.90
7646;DHT22;3864;48.180;14.178;2023-08-21T03:49:57;16.50;99.90
7646;DHT22;3864;48.180;14.178;2023-08-21T03:52:24;16.50;99.90
7646;DHT22;3864;48.180;14.178;2023-08-21T03:54:51;16.40;99.90
7646;DHT22;3864;48.180;14.178;2023-08-21T03:57:18;16.40;99.90
7646;DHT22;3864;48.180;14.178;2023-08-21T03:59:46;16.30;99.90
7646;DHT22;3864;48.180;14.178;2023-08-21T04:02:13;16.30;99.90
7646;DHT22;3864;48.180;14.178;2023-08-21T04:04:40;16.30;99.90
7646;DHT22;3864;48.180;14.178;2023-08-21T04:07:07;16.30;99.90
7646;DHT22;3864;48.180;14.178;2023-08-21T04:09:34;16.30;99.90
7646;DHT22;3864;48.180;14.178;2023-08-21T04:12:01;16.20;99.90
7646;DHT22;3864;48.180;14.178;2023-08-21T04:14:28;16.20;99.90
7646;DHT22;3864;48.180;14.178;2023-08-21T04:16:57;16.20;99.90
7646;DHT22;3864;48.180;14.178;2023-08-21T04:19:24;16.20;99.90
7646;DHT22;3864;48.180;14.178;2023-08-21T04:21:55;16.20;99.90
7646;DHT22;3864;48.180;14.178;2023-08-21T04:24:22;16.20;99.90
7646;DHT22;3864;48.180;14.178;2023-08-21T04:26:49;16.20;99.90
7646;DHT22;3864;48.180;14.178;2023-08-21T04:29:16;16.20;99.90
7646;DHT22;3864;48.180;14.178;2023-08-21T04:31:43;16.20;99.90
7646;DHT22;3864;48.180;14.178;2023-08-21T04:34:12;16.20;99.90
7646;DHT22;3864;48.180;14.178;2023-08-21T04:36:39;16.20;99.90
7646;DHT22;3864;48.180;14.178;2023-08-21T04:39:06;16.20;99.90
7646;DHT22;3864;48.180;14.178;2023-08-21T04:41:33;16.20;99.90
7646;DHT22;3864;48.180;14.178;2023-08-21T04:44:00;16.20;99.90
7646;DHT22;3864;48.180;14.178;2023-08-21T04:46:28;16.30;99.90
7646;DHT22;3864;48.180;14.178;2023-08-21T04:48:55;16.40;99.90
7646;DHT22;3864;48.180;14.178;2023-08-21T04:51:24;16.40;99.90
7646;DHT22;3864;48.180;14.178;2023-08-21T04:53:51;16.50;99.90
7646;DHT22;3864;48.180;14.178;2023-08-21T04:56:18;16.50;99.90
7646;DHT22;3864;48.180;14.178;2023-08-21T04:58:45;16.60;99.90
7646;DHT22;3864;48.180;14.178;2023-08-21T05:01:12;16.60;99.90
7646;DHT22;3864;48.180;14.178;2023-08-21T05:03:40;16.70;99.90
7646;DHT22;3864;48.180;14.178;2023-08-21T05:06:07;16.80;99.90
7646;DHT22;3864;48.180;14.178;2023-08-21T05:08:35;16.80;99.90
7646;DHT22;3864;48.180;14.178;2023-08-21T05:11:02;16.80;99.90
7646;DHT22;3864;48.180;14.178;2023-08-21T05:13:29;16.80;99.90
7646;DHT22;3864;48.180;14.178;2023-08-21T05:15:57;16.90;99.90
7646;DHT22;3864;48.180;14.178;2023-08-21T05:18:25;17.00;99.90
7646;DHT22;3864;48.180;14.178;2023-08-21T05:20:55;17.00;99.90
7646;DHT22;3864;48.180;14.178;2023-08-21T05:23:22;17.10;99.90
7646;DHT22;3864;48.180;14.178;2023-08-21T05:25:51;17.20;99.90
7646;DHT22;3864;48.180;14.178;2023-08-21T05:28:18;17.20;99.90
7646;DHT22;3864;48.180;14.178;2023-08-21T05:30:46;17.20;99.90
7646;DHT22;3864;48.180;14.178;2023-08-21T05:33:14;17.30;99.90
7646;DHT22;3864;48.180;14.178;2023-08-21T05:35:41;17.30;99.90
7646;DHT22;3864;48.180;14.178;2023-08-21T05:38:08;17.40;99.90
7646;DHT22;3864;48.180;14.178;2023-08-21T05:40:35;17.40;99.90
7646;DHT22;3864;48.180;14.178;2023-08-21T05:43:03;17.50;99.90
7646;DHT22;3864;48.180;14.178;2023-08-21T05:45:30;17.50;99.90
7646;DHT22;3864;48.180;14.178;2023-08-21T05:47:58;17.60;99.90
7646;DHT22;3864;48.180;14.178;2023-08-21T05:50:25;17.70;99.90
7646;DHT22;3864;48.180;14.178;2023-08-21T05:52:52;17.70;99.90
7646;DHT22;3864;48.180;14.178;2023-08-21T05:55:20;17.80;99.90
7646;DHT22;3864;48.180;14.178;2023-08-21T05:57:47;17.80;99.90
7646;DHT22;3864;48.180;14.178;2023-08-21T06:00:17;17.90;99.90
7646;DHT22;3864;48.180;14.178;2023-08-21T06:02:44;18.00;99.90
7646;DHT22;3864;48.180;14.178;2023-08-21T06:05:11;18.00;99.90
7646;DHT22;3864;48.180;14.178;2023-08-21T06:07:38;18.10;99.90
7646;DHT22;3864;48.180;14.178;2023-08-21T06:10:07;18.10;99.90
7646;DHT22;3864;48.180;14.178;2023-08-21T06:12:37;18.20;99.90
7646;DHT22;3864;48.180;14.178;2023-08-21T06:15:04;18.20;99.90
7646;DHT22;3864;48.180;14.178;2023-08-21T06:17:35;18.30;99.90
7646;DHT22;3864;48.180;14.178;2023-08-21T06:20:02;18.40;99.90
7646;DHT22;3864;48.180;14.178;2023-08-21T06:22:31;18.50;99.90
7646;DHT22;3864;48.180;14.178;2023-08-21T06:24:59;18.60;99.90
7646;DHT22;3864;48.180;14.178;2023-08-21T06:27:32;18.60;99.90
7646;DHT22;3864;48.180;14.178;2023-08-21T06:29:59;18.70;99.90
7646;DHT22;3864;48.180;14.178;2023-08-21T06:32:27;18.90;99.90
7646;DHT22;3864;48.180;14.178;2023-08-21T06:34:55;19.60;99.90
7646;DHT22;3864;48.180;14.178;2023-08-21T06:37:22;21.50;99.90
7646;DHT22;3864;48.180;14.178;2023-08-21T06:39:50;23.20;99.90
7646;DHT22;3864;48.180;14.178;2023-08-21T06:42:18;24.80;99.90
7646;DHT22;3864;48.180;14.178;2023-08-21T06:44:46;26.10;99.90
7646;DHT22;3864;48.180;14.178;2023-08-21T06:47:13;27.20;99.90
7646;DHT22;3864;48.180;14.178;2023-08-21T06:49:39;27.20;99.90
7646;DHT22;3864;48.180;14.178;2023-08-21T06:52:08;27.30;99.90
7646;DHT22;3864;48.180;14.178;2023-08-21T06:54:35;27.40;99.90
7646;DHT22;3864;48.180;14.178;2023-08-21T06:57:02;27.50;99.90
7646;DHT22;3864;48.180;14.178;2023-08-21T06:59:29;27.60;99.90
7646;DHT22;3864;48.180;14.178;2023-08-21T07:01:59;27.40;99.90
7646;DHT22;3864;48.180;14.178;2023-08-21T07:04:26;27.00;99.90
7646;DHT22;3864;48.180;14.178;2023-08-21T07:06:53;26.90;99.90
7646;DHT22;3864;48.180;14.178;2023-08-21T07:09:21;27.10;99.90
7646;DHT22;3864;48.180;14.178;2023-08-21T07:11:48;27.70;99.90
7646;DHT22;3864;48.180;14.178;2023-08-21T07:14:15;28.00;99.90
7646;DHT22;3864;48.180;14.178;2023-08-21T07:16:42;27.80;99.90
7646;DHT22;3864;48.180;14.178;2023-08-21T07:19:09;27.10;99.90
7646;DHT22;3864;48.180;14.178;2023-08-21T07:21:36;27.10;99.90
7646;DHT22;3864;48.180;14.178;2023-08-21T07:24:04;27.00;99.90
7646;DHT22;3864;48.180;14.178;2023-08-21T07:26:33;26.90;99.90
7646;DHT22;3864;48.180;14.178;2023-08-21T07:29:00;26.70;99.90
7646;DHT22;3864;48.180;14.178;2023-08-21T07:31:29;26.80;99.90
7646;DHT22;3864;48.180;14.178;2023-08-21T07:33:56;26.90;99.90
7646;DHT22;3864;48.180;14.178;2023-08-21T07:36:23;26.80;99.90
7646;DHT22;3864;48.180;14.178;2023-08-21T07:38:50;26.60;99.90
7646;DHT22;3864;48.180;14.178;2023-08-21T07:41:17;26.30;99.90
7646;DHT22;3864;48.180;14.178;2023-08-21T07:43:46;26.20;99.90
7646;DHT22;3864;48.180;14.178;2023-08-21T07:46:13;26.30;99.90
7646;DHT22;3864;48.180;14.178;2023-08-21T07:48:41;26.20;99.90
7646;DHT22;3864;48.180;14.178;2023-08-21T07:51:09;26.20;99.90
7646;DHT22;3864;48.180;14.178;2023-08-21T07:53:36;26.40;99.90
7646;DHT22;3864;48.180;14.178;2023-08-21T07:56:03;26.60;99.90
7646;DHT22;3864;48.180;14.178;2023-08-21T07:58:31;26.60;99.90
7646;DHT22;3864;48.180;14.178;2023-08-21T08:01:00;26.70;99.90
7646;DHT22;3864;48.180;14.178;2023-08-21T08:03:27;26.80;99.90
7646;DHT22;3864;48.180;14.178;2023-08-21T08:05:54;26.90;99.90
7646;DHT22;3864;48.180;14.178;2023-08-21T08:08:21;27.10;99.90
7646;DHT22;3864;48.180;14.178;2023-08-21T08:10:48;27.10;99.90
7646;DHT22;3864;48.180;14.178;2023-08-21T08:13:15;27.20;99.90
7646;DHT22;3864;48.180;14.178;2023-08-21T08:15:42;27.30;99.90
7646;DHT22;3864;48.180;14.178;2023-08-21T08:18:13;27.30;99.90
7646;DHT22;3864;48.180;14.178;2023-08-21T08:20:40;27.60;99.90
7646;DHT22;3864;48.180;14.178;2023-08-21T08:23:07;27.80;99.90
7646;DHT22;3864;48.180;14.178;2023-08-21T08:25:34;28.00;99.90
7646;DHT22;3864;48.180;14.178;2023-08-21T08:28:01;28.00;99.90
7646;DHT22;3864;48.180;14.178;2023-08-21T08:30:28;28.00;99.90
7646;DHT22;3864;48.180;14.178;2023-08-21T08:32:55;28.20;99.90
7646;DHT22;3864;48.180;14.178;2023-08-21T08:35:24;28.40;99.90
7646;DHT22;3864;48.180;14.178;2023-08-21T08:37:51;28.50;99.90
7646;DHT22;3864;48.180;14.178;2023-08-21T08:40:18;28.70;99.90
7646;DHT22;3864;48.180;14.178;2023-08-21T08:42:45;28.80;99.90
7646;DHT22;3864;48.180;14.178;2023-08-21T08:45:14;29.20;99.90
7646;DHT22;3864;48.180;14.178;2023-08-21T08:47:42;29.50;99.90
7646;DHT22;3864;48.180;14.178;2023-08-21T08:50:09;29.60;99.90
7646;DHT22;3864;48.180;14.178;2023-08-21T08:52:39;29.50;99.90
7646;DHT22;3864;48.180;14.178;2023-08-21T08:55:07;29.80;99.90
7646;DHT22;3864;48.180;14.178;2023-08-21T08:57:34;29.80;99.90
7646;DHT22;3864;48.180;14.178;2023-08-21T09:00:02;30.10;99.90
7646;DHT22;3864;48.180;14.178;2023-08-21T09:02:29;30.30;99.90
7646;DHT22;3864;48.180;14.178;2023-08-21T09:04:57;30.60;99.90
7646;DHT22;3864;48.180;14.178;2023-08-21T09:07:25;30.50;99.90
7646;DHT22;3864;48.180;14.178;2023-08-21T09:09:54;30.30;99.90
7646;DHT22;3864;48.180;14.178;2023-08-21T09:12:21;30.30;99.90
7646;DHT22;3864;48.180;14.178;2023-08-21T09:14:48;30.50;99.90
7646;DHT22;3864;48.180;14.178;2023-08-21T09:17:15;30.80;99.90
7646;DHT22;3864;48.180;14.178;2023-08-21T09:19:43;31.00;99.90
7646;DHT22;3864;48.180;14.178;2023-08-21T09:22:11;31.30;99.90
7646;DHT22;3864;48.180;14.178;2023-08-21T09:24:38;31.40;99.90
7646;DHT22;3864;48.180;14.178;2023-08-21T09:27:15;31.80;99.90
7646;DHT22;3864;48.180;14.178;2023-08-21T09:29:43;31.80;99.90
7646;DHT22;3864;48.180;14.178;2023-08-21T09:32:10;31.90;99.90
7646;DHT22;3864;48.180;14.178;2023-08-21T09:34:37;31.80;99.90
7646;DHT22;3864;48.180;14.178;2023-08-21T09:37:08;31.80;99.90
7646;DHT22;3864;48.180;14.178;2023-08-21T09:39:37;31.70;99.90
7646;DHT22;3864;48.180;14.178;2023-08-21T09:42:08;32.10;99.90
7646;DHT22;3864;48.180;14.178;2023-08-21T09:44:38;32.40;99.90
7646;DHT22;3864;48.180;14.178;2023-08-21T09:47:08;32.90;99.90
7646;DHT22;3864;48.180;14.178;2023-08-21T09:49:36;32.70;99.90
7646;DHT22;3864;48.180;14.178;2023-08-21T09:52:05;32.70;99.90
7646;DHT22;3864;48.180;14.178;2023-08-21T09:54:33;32.80;99.90
7646;DHT22;3864;48.180;14.178;2023-08-21T09:57:02;33.00;99.90
7646;DHT22;3864;48.180;14.178;2023-08-21T09:59:29;32.90;99.90
7646;DHT22;3864;48.180;14.178;2023-08-21T10:01:59;33.00;99.90
7646;DHT22;3864;48.180;14.178;2023-08-21T10:04:28;32.90;99.90
7646;DHT22;3864;48.180;14.178;2023-08-21T10:06:56;33.10;99.90
7646;DHT22;3864;48.180;14.178;2023-08-21T10:09:24;33.30;99.90
7646;DHT22;3864;48.180;14.178;2023-08-21T10:11:53;33.70;99.90
7646;DHT22;3864;48.180;14.178;2023-08-21T10:14:22;34.00;99.90
7646;DHT22;3864;48.180;14.178;2023-08-21T10:16:51;34.20;99.90
7646;DHT22;3864;48.180;14.178;2023-08-21T10:19:20;34.10;99.90
7646;DHT22;3864;48.180;14.178;2023-08-21T10:21:48;34.20;99.90
7646;DHT22;3864;48.180;14.178;2023-08-21T10:24:33;34.30;99.90
7646;DHT22;3864;48.180;14.178;2023-08-21T10:27:01;34.40;99.90
7646;DHT22;3864;48.180;14.178;2023-08-21T10:29:28;34.50;99.90
7646;DHT22;3864;48.180;14.178;2023-08-21T10:32:00;34.70;99.90
7646;DHT22;3864;48.180;14.178;2023-08-21T10:34:33;34.80;99.90
7646;DHT22;3864;48.180;14.178;2023-08-21T10:37:10;35.00;99.90
7646;DHT22;3864;48.180;14.178;2023-08-21T10:39:54;35.40;99.90
7646;DHT22;3864;48.180;14.178;2023-08-21T10:42:37;35.50;99.90
7646;DHT22;3864;48.180;14.178;2023-08-21T10:45:10;35.50;99.90
7646;DHT22;3864;48.180;14.178;2023-08-21T10:47:38;35.20;99.90
7646;DHT22;3864;48.180;14.178;2023-08-21T10:50:08;35.20;99.90
7646;DHT22;3864;48.180;14.178;2023-08-21T10:52:36;34.90;99.90
7646;DHT22;3864;48.180;14.178;2023-08-21T10:55:06;34.60;99.90
7646;DHT22;3864;48.180;14.178;2023-08-21T10:57:35;34.60;99.90
7646;DHT22;3864;48.180;14.178;2023-08-21T11:00:04;34.80;99.90
7646;DHT22;3864;48.180;14.178;2023-08-21T11:02:33;34.90;99.90
7646;DHT22;3864;48.180;14.178;2023-08-21T11:05:00;35.20;99.90
7646;DHT22;3864;48.180;14.178;2023-08-21T11:07:30;35.50;99.90
7646;DHT22;3864;48.180;14.178;2023-08-21T11:10:04;35.70;99.90
7646;DHT22;3864;48.180;14.178;2023-08-21T11:12:31;35.80;99.90
7646;DHT22;3864;48.180;14.178;2023-08-21T11:14:58;35.80;99.90
7646;DHT22;3864;48.180;14.178;2023-08-21T11:17:25;35.80;99.90
7646;DHT22;3864;48.180;14.178;2023-08-21T11:19:53;36.00;99.90
7646;DHT22;3864;48.180;14.178;2023-08-21T11:22:21;35.90;99.90
7646;DHT22;3864;48.180;14.178;2023-08-21T11:24:56;35.20;99.90
7646;DHT22;3864;48.180;14.178;2023-08-21T11:27:24;35.30;99.90
7646;DHT22;3864;48.180;14.178;2023-08-21T11:29:51;35.40;99.90
7646;DHT22;3864;48.180;14.178;2023-08-21T11:32:20;35.50;99.90
7646;DHT22;3864;48.180;14.178;2023-08-21T11:34:49;35.70;99.90
7646;DHT22;3864;48.180;14.178;2023-08-21T11:37:17;35.50;99.90
7646;DHT22;3864;48.180;14.178;2023-08-21T11:39:47;35.40;99.90
7646;DHT22;3864;48.180;14.178;2023-08-21T11:42:16;35.50;99.90
7646;DHT22;3864;48.180;14.178;2023-08-21T11:44:46;35.80;99.90
7646;DHT22;3864;48.180;14.178;2023-08-21T11:47:16;35.10;99.90
7646;DHT22;3864;48.180;14.178;2023-08-21T11:49:45;35.20;99.90
7646;DHT22;3864;48.180;14.178;2023-08-21T11:52:18;35.50;99.90
7646;DHT22;3864;48.180;14.178;2023-08-21T11:54:48;35.40;99.90
7646;DHT22;3864;48.180;14.178;2023-08-21T11:57:17;35.60;99.90
7646;DHT22;3864;48.180;14.178;2023-08-21T11:59:49;35.50;99.90
7646;DHT22;3864;48.180;14.178;2023-08-21T12:02:18;36.00;99.90
7646;DHT22;3864;48.180;14.178;2023-08-21T12:04:52;36.30;99.90
7646;DHT22;3864;48.180;14.178;2023-08-21T12:07:19;36.60;99.90
7646;DHT22;3864;48.180;14.178;2023-08-21T12:09:47;36.60;99.90
7646;DHT22;3864;48.180;14.178;2023-08-21T12:12:14;36.60;99.90
7646;DHT22;3864;48.180;14.178;2023-08-21T12:14:44;36.50;99.90
7646;DHT22;3864;48.180;14.178;2023-08-21T12:17:11;36.50;99.90
7646;DHT22;3864;48.180;14.178;2023-08-21T12:19:38;36.60;99.90
7646;DHT22;3864;48.180;14.178;2023-08-21T12:22:07;36.90;99.90
7646;DHT22;3864;48.180;14.178;2023-08-21T12:24:35;37.00;99.90
7646;DHT22;3864;48.180;14.178;2023-08-21T12:27:03;37.10;99.90
7646;DHT22;3864;48.180;14.178;2023-08-21T12:29:30;37.30;99.90
7646;DHT22;3864;48.180;14.178;2023-08-21T12:31:59;37.50;99.90
7646;DHT22;3864;48.180;14.178;2023-08-21T12:34:26;37.80;99.90
7646;DHT22;3864;48.180;14.178;2023-08-21T12:36:53;37.90;99.90
7646;DHT22;3864;48.180;14.178;2023-08-21T12:39:20;38.00;99.90
7646;DHT22;3864;48.180;14.178;2023-08-21T12:41:48;37.90;99.90
7646;DHT22;3864;48.180;14.178;2023-08-21T12:44:15;37.10;99.90
7646;DHT22;3864;48.180;14.178;2023-08-21T12:46:42;37.30;99.90
7646;DHT22;3864;48.180;14.178;2023-08-21T12:49:11;37.50;99.90
7646;DHT22;3864;48.180;14.178;2023-08-21T12:51:39;37.70;99.90
7646;DHT22;3864;48.180;14.178;2023-08-21T12:54:06;37.90;99.90
7646;DHT22;3864;48.180;14.178;2023-08-21T12:56:34;38.20;99.90
7646;DHT22;3864;48.180;14.178;2023-08-21T12:59:01;38.30;99.90
7646;DHT22;3864;48.180;14.178;2023-08-21T13:01:29;38.30;99.90
7646;DHT22;3864;48.180;14.178;2023-08-21T13:03:59;37.90;99.90
7646;DHT22;3864;48.180;14.178;2023-08-21T13:06:30;38.10;99.90
7646;DHT22;3864;48.180;14.178;2023-08-21T13:08:57;37.70;99.80
7646;DHT22;3864;48.180;14.178;2023-08-21T13:11:24;37.30;99.90
7646;DHT22;3864;48.180;14.178;2023-08-21T13:13:50;37.00;99.90
7646;DHT22;3864;48.180;14.178;2023-08-21T13:16:18;37.10;99.90
7646;DHT22;3864;48.180;14.178;2023-08-21T13:18:45;37.00;99.90
7646;DHT22;3864;48.180;14.178;2023-08-21T13:21:12;37.30;99.90
7646;DHT22;3864;48.180;14.178;2023-08-21T13:23:40;37.70;99.90
7646;DHT22;3864;48.180;14.178;2023-08-21T13:26:07;38.00;99.90
7646;DHT22;3864;48.180;14.178;2023-08-21T13:28:34;38.20;99.90
7646;DHT22;3864;48.180;14.178;2023-08-21T13:31:01;38.30;99.90
7646;DHT22;3864;48.180;14.178;2023-08-21T13:33:29;38.10;99.90
7646;DHT22;3864;48.180;14.178;2023-08-21T13:35:56;37.90;98.80
7646;DHT22;3864;48.180;14.178;2023-08-21T13:38:23;37.60;99.90
7646;DHT22;3864;48.180;14.178;2023-08-21T13:40:52;37.70;99.60
7646;DHT22;3864;48.180;14.178;2023-08-21T13:43:20;37.70;99.40
7646;DHT22;3864;48.180;14.178;2023-08-21T13:45:47;37.70;99.70
7646;DHT22;3864;48.180;14.178;2023-08-21T13:48:15;37.80;99.40
7646;DHT22;3864;48.180;14.178;2023-08-21T13:50:43;38.10;98.40
7646;DHT22;3864;48.180;14.178;2023-08-21T13:53:10;38.30;98.60
7646;DHT22;3864;48.180;14.178;2023-08-21T13:55:37;38.30;98.40
7646;DHT22;3864;48.180;14.178;2023-08-21T13:58:06;38.20;98.90
7646;DHT22;3864;48.180;14.178;2023-08-21T14:00:34;38.10;99.40
7646;DHT22;3864;48.180;14.178;2023-08-21T14:03:01;38.10;97.80
7646;DHT22;3864;48.180;14.178;2023-08-21T14:05:28;38.30;99.10
7646;DHT22;3864;48.180;14.178;2023-08-21T14:07:57;38.00;98.50
7646;DHT22;3864;48.180;14.178;2023-08-21T14:10:24;37.90;99.90
7646;DHT22;3864;48.180;14.178;2023-08-21T14:12:51;37.90;99.20
7646;DHT22;3864;48.180;14.178;2023-08-21T14:15:19;37.90;99.20
7646;DHT22;3864;48.180;14.178;2023-08-21T14:17:46;37.90;99.30
7646;DHT22;3864;48.180;14.178;2023-08-21T14:20:15;37.90;99.30
7646;DHT22;3864;48.180;14.178;2023-08-21T14:22:42;38.10;98.10
7646;DHT22;3864;48.180;14.178;2023-08-21T14:25:09;38.10;99.20
7646;DHT22;3864;48.180;14.178;2023-08-21T14:27:36;37.50;97.40
7646;DHT22;3864;48.180;14.178;2023-08-21T14:30:04;37.60;97.80
7646;DHT22;3864;48.180;14.178;2023-08-21T14:32:35;37.80;97.30
7646;DHT22;3864;48.180;14.178;2023-08-21T14:35:03;38.00;96.60
7646;DHT22;3864;48.180;14.178;2023-08-21T14:37:30;37.90;96.80
7646;DHT22;3864;48.180;14.178;2023-08-21T14:39:58;37.70;97.30
7646;DHT22;3864;48.180;14.178;2023-08-21T14:42:25;37.50;97.80
7646;DHT22;3864;48.180;14.178;2023-08-21T14:44:52;37.40;97.90
7646;DHT22;3864;48.180;14.178;2023-08-21T14:47:19;37.00;97.40
7646;DHT22;3864;48.180;14.178;2023-08-21T14:49:47;36.80;98.70
7646;DHT22;3864;48.180;14.178;2023-08-21T14:52:15;36.70;98.80
7646;DHT22;3864;48.180;14.178;2023-08-21T14:54:42;36.50;97.70
7646;DHT22;3864;48.180;14.178;2023-08-21T14:57:09;36.40;99.10
7646;DHT22;3864;48.180;14.178;2023-08-21T14:59:36;36.10;99.90
7646;DHT22;3864;48.180;14.178;2023-08-21T15:02:03;36.10;99.70
7646;DHT22;3864;48.180;14.178;2023-08-21T15:04:30;36.10;99.50
7646;DHT22;3864;48.180;14.178;2023-08-21T15:06:58;36.00;97.70
7646;DHT22;3864;48.180;14.178;2023-08-21T15:09:26;36.50;99.90
7646;DHT22;3864;48.180;14.178;2023-08-21T15:11:53;36.70;99.60
7646;DHT22;3864;48.180;14.178;2023-08-21T15:14:20;37.00;99.80
7646;DHT22;3864;48.180;14.178;2023-08-21T15:16:47;37.00;99.90
7646;DHT22;3864;48.180;14.178;2023-08-21T15:19:14;37.10;98.80
7646;DHT22;3864;48.180;14.178;2023-08-21T15:21:41;37.20;99.10
7646;DHT22;3864;48.180;14.178;2023-08-21T15:24:10;37.20;99.10
7646;DHT22;3864;48.180;14.178;2023-08-21T15:26:37;37.30;99.30
7646;DHT22;3864;48.180;14.178;2023-08-21T15:29:04;37.10;99.80
7646;DHT22;3864;48.180;14.178;2023-08-21T15:31:31;37.00;99.90
7646;DHT22;3864;48.180;14.178;2023-08-21T15:33:58;37.00;99.90
7646;DHT22;3864;48.180;14.178;2023-08-21T15:36:25;36.80;99.60
7646;DHT22;3864;48.180;14.178;2023-08-21T15:38:53;36.60;99.50
7646;DHT22;3864;48.180;14.178;2023-08-21T15:41:22;36.30;99.80
7646;DHT22;3864;48.180;14.178;2023-08-21T15:43:49;36.20;99.60
7646;DHT22;3864;48.180;14.178;2023-08-21T15:46:17;36.40;99.90
7646;DHT22;3864;48.180;14.178;2023-08-21T15:48:44;36.50;99.90